sensor_id;sensor_type;location;lat;lon;timestamp;P1;durP1;ratioP1;P2;durP2;ratioP2
68247;SDS011;55064;49.636;12.164;2022-10-30T00:00:47;13.30;;;4.95;;
68247;SDS011;55064;49.636;12.164;2022-10-30T00:03:15;12.15;;;5.15;;
68247;SDS011;55064;49.636;12.164;2022-10-30T00:05:47;13.73;;;5.40;;
68247;SDS011;55064;49.636;12.164;2022-10-30T00:08:15;13.73;;;5.80;;
68247;SDS011;55064;49.636;12.164;2022-10-30T00:10:42;15.73;;;5.47;;
68247;SDS011;55064;49.636;12.164;2022-10-30T00:13:11;12.20;;;5.30;;
68247;SDS011;55064;49.636;12.164;2022-10-30T00:15:39;17.42;;;5.78;;
68247;SDS011;55064;49.636;12.164;2022-10-30T00:18:11;13.80;;;5.60;;
68247;SDS011;55064;49.636;12.164;2022-10-30T00:20:41;12.70;;;5.40;;
68247;SDS011;55064;49.636;12.164;2022-10-30T00:23:09;12.82;;;5.10;;
68247;SDS011;55064;49.636;12.164;2022-10-30T00:25:35;12.60;;;5.10;;
68247;SDS011;55064;49.636;12.164;2022-10-30T00:28:02;18.00;;;5.55;;
68247;SDS011;55064;49.636;12.164;2022-10-30T00:30:31;12.73;;;4.93;;
68247;SDS011;55064;49.636;12.164;2022-10-30T00:32:57;16.27;;;5.82;;
68247;SDS011;55064;49.636;12.164;2022-10-30T00:35:23;12.97;;;4.53;;
68247;SDS011;55064;49.636;12.164;2022-10-30T00:37:48;16.77;;;5.03;;
68247;SDS011;55064;49.636;12.164;2022-10-30T00:40:22;13.02;;;4.97;;
68247;SDS011;55064;49.636;12.164;2022-10-30T00:42:49;15.02;;;5.25;;
68247;SDS011;55064;49.636;12.164;2022-10-30T00:45:18;16.80;;;5.40;;
68247;SDS011;55064;49.636;12.164;2022-10-30T00:47:49;24.07;;;6.27;;
68247;SDS011;55064;49.636;12.164;2022-10-30T00:50:22;15.23;;;4.63;;
68247;SDS011;55064;49.636;12.164;2022-10-30T00:52:53;13.07;;;4.70;;
68247;SDS011;55064;49.636;12.164;2022-10-30T00:55:24;16.77;;;5.80;;
68247;SDS011;55064;49.636;12.164;2022-10-30T00:57:54;13.10;;;5.63;;
68247;SDS011;55064;49.636;12.164;2022-10-30T01:00:22;15.48;;;5.32;;
68247;SDS011;55064;49.636;12.164;2022-10-30T01:02:52;19.70;;;6.57;;
68247;SDS011;55064;49.636;12.164;2022-10-30T01:05:24;14.17;;;6.13;;
68247;SDS011;55064;49.636;12.164;2022-10-30T01:07:53;16.17;;;7.07;;
68247;SDS011;55064;49.636;12.164;2022-10-30T01:10:18;14.35;;;7.30;;
68247;SDS011;55064;49.636;12.164;2022-10-30T01:12:47;15.20;;;7.28;;
68247;SDS011;55064;49.636;12.164;2022-10-30T01:15:15;15.43;;;6.50;;
68247;SDS011;55064;49.636;12.164;2022-10-30T01:22:57;16.23;;;6.75;;
68247;SDS011;55064;49.636;12.164;2022-10-30T01:31:23;14.23;;;6.43;;
68247;SDS011;55064;49.636;12.164;2022-10-30T01:36:29;13.10;;;5.82;;
68247;SDS011;55064;49.636;12.164;2022-10-30T01:39:12;13.65;;;6.15;;
68247;SDS011;55064;49.636;12.164;2022-10-30T01:41:47;16.38;;;6.72;;
68247;SDS011;55064;49.636;12.164;2022-10-30T01:44:19;15.20;;;5.83;;
68247;SDS011;55064;49.636;12.164;2022-10-30T01:52:25;12.25;;;4.82;;
68247;SDS011;55064;49.636;12.164;2022-10-30T02:00:26;13.68;;;4.68;;
68247;SDS011;55064;49.636;12.164;2022-10-30T02:02:52;10.68;;;4.28;;
68247;SDS011;55064;49.636;12.164;2022-10-30T02:05:20;13.00;;;4.35;;
68247;SDS011;55064;49.636;12.164;2022-10-30T02:07:56;12.35;;;4.43;;
68247;SDS011;55064;49.636;12.164;2022-10-30T02:10:24;14.17;;;4.73;;
68247;SDS011;55064;49.636;12.164;2022-10-30T02:12:52;17.85;;;6.10;;
68247;SDS011;55064;49.636;12.164;2022-10-30T02:15:19;13.82;;;5.28;;
68247;SDS011;55064;49.636;12.164;2022-10-30T02:17:48;12.00;;;5.45;;
68247;SDS011;55064;49.636;12.164;2022-10-30T02:20:18;10.70;;;4.78;;
68247;SDS011;55064;49.636;12.164;2022-10-30T02:22:51;15.43;;;5.53;;
68247;SDS011;55064;49.636;12.164;2022-10-30T02:25:17;13.05;;;5.65;;
68247;SDS011;55064;49.636;12.164;2022-10-30T02:27:43;15.15;;;6.07;;
68247;SDS011;55064;49.636;12.164;2022-10-30T02:30:08;15.87;;;6.40;;
68247;SDS011;55064;49.636;12.164;2022-10-30T02:32:37;15.05;;;6.90;;
68247;SDS011;55064;49.636;12.164;2022-10-30T02:35:03;15.70;;;6.70;;
68247;SDS011;55064;49.636;12.164;2022-10-30T02:37:29;14.85;;;6.53;;
68247;SDS011;55064;49.636;12.164;2022-10-30T02:39:56;14.67;;;6.50;;
68247;SDS011;55064;49.636;12.164;2022-10-30T02:42:29;16.77;;;7.45;;
68247;SDS011;55064;49.636;12.164;2022-10-30T02:44:55;14.95;;;6.90;;
68247;SDS011;55064;49.636;12.164;2022-10-30T02:47:20;14.67;;;6.40;;
68247;SDS011;55064;49.636;12.164;2022-10-30T02:49:46;12.57;;;6.50;;
68247;SDS011;55064;49.636;12.164;2022-10-30T02:52:13;13.03;;;6.73;;
68247;SDS011;55064;49.636;12.164;2022-10-30T02:54:39;12.27;;;6.57;;
68247;SDS011;55064;49.636;12.164;2022-10-30T02:57:07;12.80;;;5.73;;
68247;SDS011;55064;49.636;12.164;2022-10-30T02:59:35;14.65;;;6.25;;
68247;SDS011;55064;49.636;12.164;2022-10-30T03:02:05;12.87;;;5.77;;
68247;SDS011;55064;49.636;12.164;2022-10-30T03:04:33;12.90;;;6.50;;
68247;SDS011;55064;49.636;12.164;2022-10-30T03:06:58;16.50;;;6.28;;
68247;SDS011;55064;49.636;12.164;2022-10-30T03:09:28;14.82;;;5.80;;
68247;SDS011;55064;49.636;12.164;2022-10-30T03:11:54;12.38;;;6.03;;
68247;SDS011;55064;49.636;12.164;2022-10-30T03:14:22;14.10;;;6.07;;
68247;SDS011;55064;49.636;12.164;2022-10-30T03:16:50;15.32;;;6.05;;
68247;SDS011;55064;49.636;12.164;2022-10-30T03:19:21;13.73;;;6.05;;
68247;SDS011;55064;49.636;12.164;2022-10-30T03:21:46;15.52;;;7.32;;
68247;SDS011;55064;49.636;12.164;2022-10-30T03:24:14;17.37;;;8.13;;
68247;SDS011;55064;49.636;12.164;2022-10-30T03:26:39;14.90;;;7.45;;
68247;SDS011;55064;49.636;12.164;2022-10-30T03:29:07;17.23;;;7.40;;
68247;SDS011;55064;49.636;12.164;2022-10-30T03:31:35;18.03;;;7.23;;
68247;SDS011;55064;49.636;12.164;2022-10-30T03:34:05;17.10;;;6.60;;
68247;SDS011;55064;49.636;12.164;2022-10-30T03:36:33;13.93;;;6.03;;
68247;SDS011;55064;49.636;12.164;2022-10-30T03:39:01;15.25;;;6.03;;
68247;SDS011;55064;49.636;12.164;2022-10-30T03:41:27;13.23;;;6.27;;
68247;SDS011;55064;49.636;12.164;2022-10-30T03:43:57;14.40;;;6.20;;
68247;SDS011;55064;49.636;12.164;2022-10-30T03:46:24;15.02;;;5.57;;
68247;SDS011;55064;49.636;12.164;2022-10-30T03:48:50;12.77;;;6.10;;
68247;SDS011;55064;49.636;12.164;2022-10-30T03:51:17;14.67;;;5.30;;
68247;SDS011;55064;49.636;12.164;2022-10-30T03:53:48;11.02;;;4.80;;
68247;SDS011;55064;49.636;12.164;2022-10-30T03:56:18;11.02;;;5.07;;
68247;SDS011;55064;49.636;12.164;2022-10-30T03:58:50;12.48;;;4.88;;
68247;SDS011;55064;49.636;12.164;2022-10-30T04:01:18;14.70;;;4.90;;
68247;SDS011;55064;49.636;12.164;2022-10-30T04:03:46;13.63;;;4.35;;
68247;SDS011;55064;49.636;12.164;2022-10-30T04:06:16;10.07;;;4.43;;
68247;SDS011;55064;49.636;12.164;2022-10-30T04:08:41;11.38;;;4.70;;
68247;SDS011;55064;49.636;12.164;2022-10-30T04:11:08;14.80;;;5.10;;
68247;SDS011;55064;49.636;12.164;2022-10-30T04:13:35;12.45;;;5.72;;
68247;SDS011;55064;49.636;12.164;2022-10-30T04:16:03;14.73;;;5.80;;
68247;SDS011;55064;49.636;12.164;2022-10-30T04:18:30;10.60;;;5.35;;
68247;SDS011;55064;49.636;12.164;2022-10-30T04:20:58;12.33;;;5.47;;
68247;SDS011;55064;49.636;12.164;2022-10-30T04:23:26;11.80;;;5.70;;
68247;SDS011;55064;49.636;12.164;2022-10-30T04:25:54;12.17;;;5.17;;
68247;SDS011;55064;49.636;12.164;2022-10-30T04:28:22;13.23;;;5.68;;
68247;SDS011;55064;49.636;12.164;2022-10-30T04:30:47;12.87;;;5.83;;
68247;SDS011;55064;49.636;12.164;2022-10-30T04:33:15;13.85;;;5.95;;
68247;SDS011;55064;49.636;12.164;2022-10-30T04:35:40;12.97;;;5.67;;
68247;SDS011;55064;49.636;12.164;2022-10-30T04:38:07;12.32;;;5.28;;
68247;SDS011;55064;49.636;12.164;2022-10-30T04:40:38;13.90;;;5.55;;
68247;SDS011;55064;49.636;12.164;2022-10-30T04:43:05;16.70;;;5.90;;
68247;SDS011;55064;49.636;12.164;2022-10-30T04:45:31;12.95;;;5.07;;
68247;SDS011;55064;49.636;12.164;2022-10-30T04:50:29;12.82;;;5.40;;
68247;SDS011;55064;49.636;12.164;2022-10-30T04:52:59;13.05;;;5.65;;
68247;SDS011;55064;49.636;12.164;2022-10-30T04:55:29;12.98;;;5.18;;
68247;SDS011;55064;49.636;12.164;2022-10-30T04:57:56;12.88;;;5.25;;
68247;SDS011;55064;49.636;12.164;2022-10-30T05:00:22;13.47;;;5.47;;
68247;SDS011;55064;49.636;12.164;2022-10-30T05:02:53;12.52;;;5.43;;
68247;SDS011;55064;49.636;12.164;2022-10-30T05:05:20;13.38;;;5.38;;
68247;SDS011;55064;49.636;12.164;2022-10-30T05:07:51;15.55;;;6.00;;
68247;SDS011;55064;49.636;12.164;2022-10-30T05:10:19;17.25;;;6.43;;
68247;SDS011;55064;49.636;12.164;2022-10-30T05:12:44;15.63;;;5.70;;
68247;SDS011;55064;49.636;12.164;2022-10-30T05:15:11;13.20;;;5.70;;
68247;SDS011;55064;49.636;12.164;2022-10-30T05:17:38;13.02;;;5.20;;
68247;SDS011;55064;49.636;12.164;2022-10-30T05:20:04;17.27;;;5.35;;
68247;SDS011;55064;49.636;12.164;2022-10-30T05:22:32;12.70;;;5.13;;
68247;SDS011;55064;49.636;12.164;2022-10-30T05:24:57;14.90;;;5.75;;
68247;SDS011;55064;49.636;12.164;2022-10-30T05:27:25;12.00;;;5.17;;
68247;SDS011;55064;49.636;12.164;2022-10-30T05:29:52;15.52;;;5.10;;
68247;SDS011;55064;49.636;12.164;2022-10-30T05:32:18;15.30;;;5.47;;
68247;SDS011;55064;49.636;12.164;2022-10-30T05:34:44;10.93;;;5.13;;
68247;SDS011;55064;49.636;12.164;2022-10-30T05:37:12;12.68;;;5.28;;
68247;SDS011;55064;49.636;12.164;2022-10-30T05:39:39;12.67;;;5.13;;
68247;SDS011;55064;49.636;12.164;2022-10-30T05:42:10;13.77;;;5.88;;
68247;SDS011;55064;49.636;12.164;2022-10-30T05:44:35;13.23;;;6.20;;
68247;SDS011;55064;49.636;12.164;2022-10-30T05:47:05;15.18;;;6.05;;
68247;SDS011;55064;49.636;12.164;2022-10-30T05:49:33;14.73;;;6.97;;
68247;SDS011;55064;49.636;12.164;2022-10-30T05:52:03;21.30;;;7.40;;
68247;SDS011;55064;49.636;12.164;2022-10-30T05:54:29;24.27;;;7.93;;
68247;SDS011;55064;49.636;12.164;2022-10-30T05:56:55;18.27;;;7.15;;
68247;SDS011;55064;49.636;12.164;2022-10-30T05:59:23;16.50;;;6.50;;
68247;SDS011;55064;49.636;12.164;2022-10-30T06:01:49;12.53;;;5.57;;
68247;SDS011;55064;49.636;12.164;2022-10-30T06:04:14;15.43;;;6.00;;
68247;SDS011;55064;49.636;12.164;2022-10-30T06:06:40;22.43;;;6.43;;
68247;SDS011;55064;49.636;12.164;2022-10-30T06:09:07;12.73;;;6.15;;
68247;SDS011;55064;49.636;12.164;2022-10-30T06:11:33;16.23;;;6.33;;
68247;SDS011;55064;49.636;12.164;2022-10-30T06:14:03;12.15;;;5.80;;
68247;SDS011;55064;49.636;12.164;2022-10-30T06:16:32;11.73;;;5.10;;
68247;SDS011;55064;49.636;12.164;2022-10-30T06:19:03;16.17;;;5.95;;
68247;SDS011;55064;49.636;12.164;2022-10-30T06:21:30;15.93;;;6.90;;
68247;SDS011;55064;49.636;12.164;2022-10-30T06:23:59;22.27;;;8.68;;
68247;SDS011;55064;49.636;12.164;2022-10-30T06:26:24;17.60;;;9.30;;
68247;SDS011;55064;49.636;12.164;2022-10-30T06:28:50;21.07;;;9.20;;
68247;SDS011;55064;49.636;12.164;2022-10-30T06:31:17;15.52;;;8.02;;
68247;SDS011;55064;49.636;12.164;2022-10-30T06:33:47;19.30;;;7.20;;
68247;SDS011;55064;49.636;12.164;2022-10-30T06:36:15;14.77;;;6.07;;
68247;SDS011;55064;49.636;12.164;2022-10-30T06:38:41;12.30;;;5.00;;
68247;SDS011;55064;49.636;12.164;2022-10-30T06:41:07;10.68;;;5.10;;
68247;SDS011;55064;49.636;12.164;2022-10-30T06:43:37;11.35;;;5.20;;
68247;SDS011;55064;49.636;12.164;2022-10-30T06:46:03;13.20;;;5.67;;
68247;SDS011;55064;49.636;12.164;2022-10-30T06:48:28;13.43;;;5.67;;
68247;SDS011;55064;49.636;12.164;2022-10-30T06:50:56;24.58;;;10.50;;
68247;SDS011;55064;49.636;12.164;2022-10-30T06:53:27;29.27;;;11.88;;
68247;SDS011;55064;49.636;12.164;2022-10-30T06:55:56;26.92;;;11.85;;
68247;SDS011;55064;49.636;12.164;2022-10-30T06:58:23;24.00;;;10.07;;
68247;SDS011;55064;49.636;12.164;2022-10-30T07:00:49;23.30;;;9.40;;
68247;SDS011;55064;49.636;12.164;2022-10-30T07:03:14;21.60;;;9.23;;
68247;SDS011;55064;49.636;12.164;2022-10-30T07:05:40;16.37;;;7.63;;
68247;SDS011;55064;49.636;12.164;2022-10-30T07:08:08;16.53;;;6.70;;
68247;SDS011;55064;49.636;12.164;2022-10-30T07:10:35;17.33;;;6.35;;
68247;SDS011;55064;49.636;12.164;2022-10-30T07:13:01;14.07;;;6.43;;
68247;SDS011;55064;49.636;12.164;2022-10-30T07:15:26;12.60;;;6.13;;
68247;SDS011;55064;49.636;12.164;2022-10-30T07:17:59;14.33;;;7.00;;
68247;SDS011;55064;49.636;12.164;2022-10-30T07:20:29;14.75;;;7.43;;
68247;SDS011;55064;49.636;12.164;2022-10-30T07:23:01;19.52;;;7.90;;
68247;SDS011;55064;49.636;12.164;2022-10-30T07:25:33;12.48;;;6.63;;
68247;SDS011;55064;49.636;12.164;2022-10-30T07:28:00;12.43;;;7.00;;
68247;SDS011;55064;49.636;12.164;2022-10-30T07:30:28;16.63;;;6.53;;
68247;SDS011;55064;49.636;12.164;2022-10-30T07:33:00;15.53;;;6.90;;
68247;SDS011;55064;49.636;12.164;2022-10-30T07:35:27;13.65;;;7.18;;
68247;SDS011;55064;49.636;12.164;2022-10-30T07:37:53;12.00;;;6.50;;
68247;SDS011;55064;49.636;12.164;2022-10-30T07:40:27;13.60;;;6.70;;
68247;SDS011;55064;49.636;12.164;2022-10-30T07:42:56;17.80;;;7.87;;
68247;SDS011;55064;49.636;12.164;2022-10-30T07:45:24;15.00;;;6.30;;
68247;SDS011;55064;49.636;12.164;2022-10-30T07:47:53;13.60;;;6.10;;
68247;SDS011;55064;49.636;12.164;2022-10-30T07:50:19;15.68;;;6.70;;
68247;SDS011;55064;49.636;12.164;2022-10-30T07:52:48;13.38;;;6.47;;
68247;SDS011;55064;49.636;12.164;2022-10-30T07:55:14;14.68;;;6.30;;
68247;SDS011;55064;49.636;12.164;2022-10-30T07:57:40;12.40;;;6.57;;
68247;SDS011;55064;49.636;12.164;2022-10-30T08:00:10;15.13;;;7.28;;
68247;SDS011;55064;49.636;12.164;2022-10-30T08:02:37;16.23;;;7.65;;
68247;SDS011;55064;49.636;12.164;2022-10-30T08:05:05;18.33;;;9.30;;
68247;SDS011;55064;49.636;12.164;2022-10-30T08:07:34;19.93;;;7.97;;
68247;SDS011;55064;49.636;12.164;2022-10-30T08:10:01;24.80;;;9.00;;
68247;SDS011;55064;49.636;12.164;2022-10-30T08:12:27;16.35;;;8.52;;
68247;SDS011;55064;49.636;12.164;2022-10-30T08:14:52;16.90;;;7.37;;
68247;SDS011;55064;49.636;12.164;2022-10-30T08:17:23;13.60;;;6.55;;
68247;SDS011;55064;49.636;12.164;2022-10-30T08:19:48;12.30;;;6.40;;
68247;SDS011;55064;49.636;12.164;2022-10-30T08:22:14;15.40;;;6.72;;
68247;SDS011;55064;49.636;12.164;2022-10-30T08:24:41;13.60;;;6.50;;
68247;SDS011;55064;49.636;12.164;2022-10-30T08:27:09;15.13;;;7.05;;
68247;SDS011;55064;49.636;12.164;2022-10-30T08:29:35;14.40;;;7.10;;
68247;SDS011;55064;49.636;12.164;2022-10-30T08:32:00;14.60;;;6.80;;
68247;SDS011;55064;49.636;12.164;2022-10-30T08:34:26;17.80;;;6.53;;
68247;SDS011;55064;49.636;12.164;2022-10-30T08:36:52;16.42;;;6.30;;
68247;SDS011;55064;49.636;12.164;2022-10-30T08:39:20;17.05;;;7.25;;
68247;SDS011;55064;49.636;12.164;2022-10-30T08:41:48;16.47;;;7.03;;
68247;SDS011;55064;49.636;12.164;2022-10-30T08:44:16;15.30;;;7.30;;
68247;SDS011;55064;49.636;12.164;2022-10-30T08:46:44;15.38;;;6.40;;
68247;SDS011;55064;49.636;12.164;2022-10-30T08:49:09;17.10;;;6.87;;
68247;SDS011;55064;49.636;12.164;2022-10-30T08:51:35;14.77;;;6.70;;
68247;SDS011;55064;49.636;12.164;2022-10-30T08:54:00;16.33;;;6.97;;
68247;SDS011;55064;49.636;12.164;2022-10-30T08:56:30;16.17;;;6.30;;
68247;SDS011;55064;49.636;12.164;2022-10-30T08:58:58;14.00;;;6.07;;
68247;SDS011;55064;49.636;12.164;2022-10-30T09:01:23;16.58;;;5.47;;
68247;SDS011;55064;49.636;12.164;2022-10-30T09:03:49;11.98;;;5.97;;
68247;SDS011;55064;49.636;12.164;2022-10-30T09:06:16;13.23;;;5.00;;
68247;SDS011;55064;49.636;12.164;2022-10-30T09:08:42;12.70;;;4.68;;
68247;SDS011;55064;49.636;12.164;2022-10-30T09:11:10;11.83;;;4.67;;
68247;SDS011;55064;49.636;12.164;2022-10-30T09:13:35;12.27;;;4.80;;
68247;SDS011;55064;49.636;12.164;2022-10-30T09:16:01;13.67;;;4.70;;
68247;SDS011;55064;49.636;12.164;2022-10-30T09:18:29;12.50;;;4.22;;
68247;SDS011;55064;49.636;12.164;2022-10-30T09:20:58;12.50;;;4.33;;
68247;SDS011;55064;49.636;12.164;2022-10-30T09:23:23;10.23;;;4.33;;
68247;SDS011;55064;49.636;12.164;2022-10-30T09:25:48;13.15;;;4.65;;
68247;SDS011;55064;49.636;12.164;2022-10-30T09:28:14;10.37;;;4.63;;
68247;SDS011;55064;49.636;12.164;2022-10-30T09:30:39;10.20;;;4.60;;
68247;SDS011;55064;49.636;12.164;2022-10-30T09:33:05;11.83;;;4.70;;
68247;SDS011;55064;49.636;12.164;2022-10-30T09:35:32;11.23;;;4.55;;
68247;SDS011;55064;49.636;12.164;2022-10-30T09:38:00;13.60;;;4.70;;
68247;SDS011;55064;49.636;12.164;2022-10-30T10:02:34;12.57;;;4.60;;
68247;SDS011;55064;49.636;12.164;2022-10-30T10:05:22;11.00;;;4.40;;
68247;SDS011;55064;49.636;12.164;2022-10-30T10:07:54;12.63;;;4.50;;
68247;SDS011;55064;49.636;12.164;2022-10-30T10:10:39;10.37;;;4.13;;
68247;SDS011;55064;49.636;12.164;2022-10-30T10:16:01;10.32;;;4.43;;
68247;SDS011;55064;49.636;12.164;2022-10-30T10:18:44;14.05;;;4.60;;
68247;SDS011;55064;49.636;12.164;2022-10-30T10:21:22;11.07;;;4.07;;
68247;SDS011;55064;49.636;12.164;2022-10-30T10:23:55;9.97;;;3.90;;
68247;SDS011;55064;49.636;12.164;2022-10-30T10:26:44;12.70;;;4.03;;
68247;SDS011;55064;49.636;12.164;2022-10-30T10:29:22;13.20;;;4.30;;
68247;SDS011;55064;49.636;12.164;2022-10-30T10:32:03;10.35;;;3.63;;
68247;SDS011;55064;49.636;12.164;2022-10-30T10:37:28;12.20;;;3.87;;
68247;SDS011;55064;49.636;12.164;2022-10-30T10:45:54;12.20;;;3.47;;
68247;SDS011;55064;49.636;12.164;2022-10-30T10:50:58;12.47;;;3.80;;
68247;SDS011;55064;49.636;12.164;2022-10-30T10:53:28;12.73;;;3.05;;
68247;SDS011;55064;49.636;12.164;2022-10-30T10:56:03;12.88;;;3.50;;
68247;SDS011;55064;49.636;12.164;2022-10-30T11:01:32;13.52;;;3.30;;
68247;SDS011;55064;49.636;12.164;2022-10-30T11:04:04;10.93;;;3.37;;
68247;SDS011;55064;49.636;12.164;2022-10-30T11:06:41;11.38;;;3.30;;
68247;SDS011;55064;49.636;12.164;2022-10-30T11:09:14;11.50;;;3.30;;
68247;SDS011;55064;49.636;12.164;2022-10-30T11:11:43;12.43;;;3.20;;
68247;SDS011;55064;49.636;12.164;2022-10-30T11:14:13;11.18;;;3.47;;
68247;SDS011;55064;49.636;12.164;2022-10-30T11:19:29;10.48;;;3.20;;
68247;SDS011;55064;49.636;12.164;2022-10-30T11:21:58;11.68;;;3.00;;
68247;SDS011;55064;49.636;12.164;2022-10-30T11:24:26;14.80;;;3.00;;
68247;SDS011;55064;49.636;12.164;2022-10-30T11:26:54;13.98;;;3.28;;
68247;SDS011;55064;49.636;12.164;2022-10-30T11:29:23;12.97;;;3.00;;
68247;SDS011;55064;49.636;12.164;2022-10-30T11:31:58;12.50;;;3.63;;
68247;SDS011;55064;49.636;12.164;2022-10-30T11:34:35;13.07;;;3.17;;
68247;SDS011;55064;49.636;12.164;2022-10-30T11:37:02;11.07;;;3.60;;
68247;SDS011;55064;49.636;12.164;2022-10-30T11:39:29;9.70;;;3.22;;
68247;SDS011;55064;49.636;12.164;2022-10-30T11:44:37;12.75;;;3.30;;
68247;SDS011;55064;49.636;12.164;2022-10-30T11:47:06;9.18;;;3.38;;
68247;SDS011;55064;49.636;12.164;2022-10-30T11:52:24;9.93;;;3.40;;
68247;SDS011;55064;49.636;12.164;2022-10-30T11:54:56;11.97;;;3.33;;
68247;SDS011;55064;49.636;12.164;2022-10-30T11:57:34;12.98;;;3.40;;
68247;SDS011;55064;49.636;12.164;2022-10-30T12:00:07;13.07;;;3.17;;
68247;SDS011;55064;49.636;12.164;2022-10-30T12:02:43;10.13;;;3.20;;
68247;SDS011;55064;49.636;12.164;2022-10-30T12:10:30;13.93;;;3.70;;
68247;SDS011;55064;49.636;12.164;2022-10-30T12:12:56;11.85;;;3.42;;
68247;SDS011;55064;49.636;12.164;2022-10-30T12:15:31;8.70;;;3.78;;
68247;SDS011;55064;49.636;12.164;2022-10-30T12:20:35;14.10;;;3.38;;
68247;SDS011;55064;49.636;12.164;2022-10-30T12:23:15;12.88;;;3.78;;
68247;SDS011;55064;49.636;12.164;2022-10-30T12:25:48;11.32;;;3.95;;
68247;SDS011;55064;49.636;12.164;2022-10-30T12:28:17;10.73;;;4.00;;
68247;SDS011;55064;49.636;12.164;2022-10-30T12:33:32;11.82;;;3.95;;
68247;SDS011;55064;49.636;12.164;2022-10-30T12:36:03;12.02;;;3.60;;
68247;SDS011;55064;49.636;12.164;2022-10-30T12:38:50;11.25;;;3.88;;
68247;SDS011;55064;49.636;12.164;2022-10-30T12:41:27;14.27;;;3.78;;
68247;SDS011;55064;49.636;12.164;2022-10-30T12:46:44;9.85;;;3.30;;
68247;SDS011;55064;49.636;12.164;2022-10-30T12:57:29;12.83;;;3.70;;
68247;SDS011;55064;49.636;12.164;2022-10-30T13:00:05;9.88;;;3.03;;
68247;SDS011;55064;49.636;12.164;2022-10-30T13:02:37;14.75;;;3.30;;
68247;SDS011;55064;49.636;12.164;2022-10-30T13:05:32;10.55;;;3.60;;
68247;SDS011;55064;49.636;12.164;2022-10-30T13:13:46;12.77;;;3.65;;
68247;SDS011;55064;49.636;12.164;2022-10-30T13:16:21;13.82;;;3.67;;
68247;SDS011;55064;49.636;12.164;2022-10-30T13:18:51;14.77;;;3.38;;
68247;SDS011;55064;49.636;12.164;2022-10-30T13:24:05;15.60;;;3.50;;
68247;SDS011;55064;49.636;12.164;2022-10-30T13:26:36;9.95;;;3.42;;
68247;SDS011;55064;49.636;12.164;2022-10-30T13:42:41;10.68;;;3.90;;
68247;SDS011;55064;49.636;12.164;2022-10-30T13:56:52;14.60;;;3.55;;
68247;SDS011;55064;49.636;12.164;2022-10-30T14:04:25;11.87;;;3.67;;
68247;SDS011;55064;49.636;12.164;2022-10-30T14:07:08;11.60;;;3.65;;
68247;SDS011;55064;49.636;12.164;2022-10-30T14:09:55;10.90;;;3.70;;
68247;SDS011;55064;49.636;12.164;2022-10-30T14:20:36;11.35;;;3.40;;
68247;SDS011;55064;49.636;12.164;2022-10-30T14:23:05;11.85;;;3.67;;
68247;SDS011;55064;49.636;12.164;2022-10-30T14:25:33;10.60;;;2.90;;
68247;SDS011;55064;49.636;12.164;2022-10-30T14:27:59;10.83;;;3.30;;
68247;SDS011;55064;49.636;12.164;2022-10-30T14:30:25;10.73;;;3.27;;
68247;SDS011;55064;49.636;12.164;2022-10-30T14:32:52;13.55;;;3.53;;
68247;SDS011;55064;49.636;12.164;2022-10-30T14:35:38;11.32;;;4.00;;
68247;SDS011;55064;49.636;12.164;2022-10-30T14:40:40;12.80;;;3.37;;
68247;SDS011;55064;49.636;12.164;2022-10-30T14:46:03;16.00;;;3.80;;
68247;SDS011;55064;49.636;12.164;2022-10-30T14:51:19;9.57;;;3.20;;
68247;SDS011;55064;49.636;12.164;2022-10-30T14:53:54;16.10;;;3.77;;
68247;SDS011;55064;49.636;12.164;2022-10-30T14:56:33;13.43;;;3.58;;
68247;SDS011;55064;49.636;12.164;2022-10-30T15:10:03;11.65;;;3.97;;
68247;SDS011;55064;49.636;12.164;2022-10-30T15:15:36;8.65;;;2.97;;
68247;SDS011;55064;49.636;12.164;2022-10-30T15:18:07;13.90;;;3.80;;
68247;SDS011;55064;49.636;12.164;2022-10-30T15:20:38;14.83;;;3.40;;
68247;SDS011;55064;49.636;12.164;2022-10-30T15:23:46;13.38;;;4.07;;
68247;SDS011;55064;49.636;12.164;2022-10-30T15:26:06;10.97;;;3.33;;
68247;SDS011;55064;49.636;12.164;2022-10-30T15:28:44;12.18;;;4.20;;
68247;SDS011;55064;49.636;12.164;2022-10-30T15:33:42;13.97;;;5.10;;
68247;SDS011;55064;49.636;12.164;2022-10-30T15:36:18;17.48;;;4.97;;
68247;SDS011;55064;49.636;12.164;2022-10-30T15:41:41;13.13;;;4.70;;
68247;SDS011;55064;49.636;12.164;2022-10-30T15:44:16;15.83;;;4.70;;
68247;SDS011;55064;49.636;12.164;2022-10-30T15:46:45;13.50;;;4.53;;
68247;SDS011;55064;49.636;12.164;2022-10-30T15:49:23;15.85;;;4.30;;
68247;SDS011;55064;49.636;12.164;2022-10-30T15:51:49;10.30;;;4.22;;
68247;SDS011;55064;49.636;12.164;2022-10-30T15:54:19;10.52;;;4.15;;
68247;SDS011;55064;49.636;12.164;2022-10-30T15:56:47;12.50;;;4.00;;
68247;SDS011;55064;49.636;12.164;2022-10-30T15:59:30;20.95;;;4.38;;
68247;SDS011;55064;49.636;12.164;2022-10-30T16:01:59;12.73;;;3.70;;
68247;SDS011;55064;49.636;12.164;2022-10-30T16:04:25;12.00;;;3.80;;
68247;SDS011;55064;49.636;12.164;2022-10-30T16:07:01;15.05;;;6.07;;
68247;SDS011;55064;49.636;12.164;2022-10-30T16:09:47;11.70;;;4.68;;
68247;SDS011;55064;49.636;12.164;2022-10-30T16:12:23;12.00;;;3.85;;
68247;SDS011;55064;49.636;12.164;2022-10-30T16:14:50;16.73;;;4.00;;
68247;SDS011;55064;49.636;12.164;2022-10-30T16:17:17;15.00;;;4.75;;
68247;SDS011;55064;49.636;12.164;2022-10-30T16:19:47;11.95;;;4.40;;
68247;SDS011;55064;49.636;12.164;2022-10-30T16:22:25;14.30;;;5.28;;
68247;SDS011;55064;49.636;12.164;2022-10-30T16:24:58;15.95;;;6.45;;
68247;SDS011;55064;49.636;12.164;2022-10-30T16:27:26;15.57;;;5.83;;
68247;SDS011;55064;49.636;12.164;2022-10-30T16:29:52;17.35;;;5.15;;
68247;SDS011;55064;49.636;12.164;2022-10-30T16:32:25;14.07;;;6.10;;
68247;SDS011;55064;49.636;12.164;2022-10-30T16:35:04;14.50;;;4.82;;
68247;SDS011;55064;49.636;12.164;2022-10-30T16:37:35;12.73;;;4.70;;
68247;SDS011;55064;49.636;12.164;2022-10-30T16:40:26;12.68;;;4.82;;
68247;SDS011;55064;49.636;12.164;2022-10-30T16:42:55;11.80;;;4.63;;
68247;SDS011;55064;49.636;12.164;2022-10-30T16:47:53;17.03;;;6.37;;
68247;SDS011;55064;49.636;12.164;2022-10-30T16:50:25;16.65;;;6.13;;
68247;SDS011;55064;49.636;12.164;2022-10-30T16:53:14;18.67;;;7.22;;
68247;SDS011;55064;49.636;12.164;2022-10-30T16:55:46;17.67;;;7.00;;
68247;SDS011;55064;49.636;12.164;2022-10-30T16:58:14;19.15;;;8.00;;
68247;SDS011;55064;49.636;12.164;2022-10-30T17:01:02;19.90;;;7.63;;
68247;SDS011;55064;49.636;12.164;2022-10-30T17:03:31;21.98;;;10.70;;
68247;SDS011;55064;49.636;12.164;2022-10-30T17:06:03;23.17;;;10.65;;
68247;SDS011;55064;49.636;12.164;2022-10-30T17:08:38;18.60;;;8.93;;
68247;SDS011;55064;49.636;12.164;2022-10-30T17:11:14;15.57;;;7.22;;
68247;SDS011;55064;49.636;12.164;2022-10-30T17:19:44;13.40;;;5.97;;
68247;SDS011;55064;49.636;12.164;2022-10-30T17:21:56;17.52;;;8.02;;
68247;SDS011;55064;49.636;12.164;2022-10-30T17:24:35;14.27;;;7.75;;
68247;SDS011;55064;49.636;12.164;2022-10-30T17:27:05;19.83;;;7.77;;
68247;SDS011;55064;49.636;12.164;2022-10-30T17:29:46;16.08;;;7.50;;
68247;SDS011;55064;49.636;12.164;2022-10-30T17:32:27;22.73;;;9.20;;
68247;SDS011;55064;49.636;12.164;2022-10-30T17:35:14;17.83;;;6.82;;